Nearby METAR Reports

 

KHFD - Hartford/Brainar, Connecticut, USA
Distance from station: ESE 5mi, 8km
Updated: Sun, 22-May-2022 1:53am EDT
Clear
Clear
 Wind from SSW
Wind: SSW 3 mph , 6 km/h
Temperature: 72°F , 22°C
Dew Point: 64°F , 18°C
Humidity: 78%
Barometer: 30.00 inHg , 1015.9 hPa
Clouds: Clear
Visibility: 10 miles , 16 km
2022/05/22 05:53 KHFD 220553Z AUTO 21003KT 10SM CLR 22/18 A3000 RMK AO2 SLP160 T02220178 10272 20222 58004
KBDL - Windsor Locks, Connecticut, USA
Distance from station: NNE 12mi, 20km
Updated: Sun, 22-May-2022 1:51am EDT
Few Clouds
Few Clouds
 Wind from SSW
Wind: SSW 5 mph , 7 km/h
Temperature: 72°F , 22°C
Dew Point: 64°F , 18°C
Humidity: 78%
Barometer: 30.00 inHg , 1015.9 hPa
Clouds: Few Clouds
Visibility: 9 miles , 14 km
Cloud details: Few Clouds 10000 ft
Few Clouds 25000 ft
2022/05/22 05:51 KBDL 220551Z 21004KT 9SM FEW100 FEW250 22/18 A3000 RMK AO2 SLP158 T02170183 10283 20217 58003
 
KMMK - Meriden, Connecticut, USA
Distance from station: SSW 18mi, 28km
Updated: Sun, 22-May-2022 1:53am EDT
Mist, Clear
Mist, Clear
 Wind from calm
Wind: Calm
Temperature: 64°F , 18°C
Dew Point: 63°F , 17°C
Humidity: 94%
Barometer: 30.02 inHg , 1016.6 hPa
Summary: Mist
Clouds: Clear
Visibility: 5 miles , 8 km
2022/05/22 05:53 KMMK 220553Z AUTO 00000KT 5SM BR CLR 18/17 A3002 RMK AO2 SLP163 T01830167 10250 20178 58004
KBAF - Westfield, Massachusetts, USA
Distance from station: N 28mi, 45km
Updated: Sun, 22-May-2022 1:53am EDT
Clear
Clear
 Wind from S
Wind: S 6 mph , 9 km/h
Temperature: 70°F , 21°C
Dew Point: 66°F , 19°C
Humidity: 88%
Barometer: 29.99 inHg , 1015.6 hPa
Clouds: Clear
Visibility: 10 miles , 16 km
2022/05/22 05:53 KBAF 220553Z AUTO 19005KT 10SM CLR 21/19 A2999 RMK AO2 SLP155 T02060189 10278 20206 58000 TSNO
 
KIJD - Willimantic, Connecticut, USA
Distance from station: E 29mi, 46km
Updated: Sun, 22-May-2022 1:52am EDT
Clear
Clear
 Wind from calm
Wind: Calm
Temperature: 66°F , 19°C
Dew Point: 64°F , 18°C
Humidity: 94%
Barometer: 30.02 inHg , 1016.6 hPa
Clouds: Clear
Visibility: 9 miles , 14 km
2022/05/22 05:52 KIJD 220552Z AUTO 00000KT 9SM CLR 19/18 A3002 RMK AO2 SLP162 T01940178 10267 20194 58006 TSNO
KOXC - Oxford/Waterbury, Connecticut, USA
Distance from station: SW 29mi, 46km
Updated: Sun, 22-May-2022 1:51am EDT
Clear
Clear
 Wind from SW
Wind: SW 3 mph , 6 km/h
Temperature: 72°F , 22°C
Dew Point: 64°F , 18°C
Humidity: 78%
Barometer: 30.05 inHg , 1017.6 hPa
Clouds: Clear
Visibility: 10 miles , 16 km
2022/05/22 05:51 KOXC 220551Z AUTO 22003KT 10SM CLR 22/18 A3005 RMK AO2 SLP179 T02170178 10256 20206 58004
 
KSNC - Chester, Connecticut, USA
Distance from station: SSE 29mi, 47km
Updated: Sun, 22-May-2022 2:35am EDT
Clear
Clear
 Wind from SW
Wind: SW 5 mph , 7 km/h
Temperature: 68°F , 20°C
Dew Point: 64°F , 18°C
Humidity: 88%
Barometer: 30.02 inHg , 1016.6 hPa
Clouds: Clear
Visibility: 10 miles , 16 km
2022/05/22 06:35 KSNC 220635Z AUTO 23004KT 10SM CLR 20/18 A3002 RMK AO2
KCEF - Chicopee/Westove, Massachusetts, USA
Distance from station: NNE 32mi, 52km
Updated: Sun, 22-May-2022 1:56am EDT
Clear
Clear
 Wind from S
Wind: S 6 mph , 9 km/h
Temperature: 70°F , 21°C
Dew Point: 66°F , 19°C
Humidity: 88%
Barometer: 29.99 inHg , 1015.6 hPa
Clouds: Clear
Visibility: 10 miles , 16 km
2022/05/22 05:56 KCEF 220556Z AUTO 19005KT 10SM CLR 21/19 A2999 RMK AO2 SLP160 T02070188 10287 20207 58003
 
KHVN - New Haven/Tweed, Connecticut, USA
Distance from station: S 35mi, 56km
Updated: Sun, 22-May-2022 1:53am EDT
Mist, Clear
Mist, Clear
 Wind from calm
Wind: Calm
Temperature: 66°F , 19°C
Dew Point: 64°F , 18°C
Humidity: 94%
Barometer: 30.01 inHg , 1016.3 hPa
Summary: Mist
Clouds: Clear
Visibility: 5 miles , 8 km
2022/05/22 05:53 KHVN 220553Z AUTO 00000KT 5SM BR CLR 19/18 A3001 RMK AO2 SLP162 T01890178 10228 20189 58007
KBDR - Bridgeport, Connecticut, USA
Distance from station: SSW 46mi, 74km
Updated: Sun, 22-May-2022 1:52am EDT
Clear
Clear
 Wind from ESE
Wind: ESE 5 mph , 7 km/h
Temperature: 64°F , 18°C
Dew Point: 61°F , 16°C
Humidity: 88%
Barometer: 30.01 inHg , 1016.3 hPa
Clouds: Clear
Visibility: 10 miles , 16 km
2022/05/22 05:52 KBDR 220552Z AUTO 11004KT 10SM CLR 18/16 A3001 RMK AO2 SLP160 T01780161 10228 20178 58006
 
KGON - Groton/New Londo, Connecticut, USA
Distance from station: SE 46mi, 75km
Updated: Sun, 22-May-2022 1:56am EDT
Mist, Clear
Mist, Clear
 Wind from SSE
Wind: SSE 3 mph , 6 km/h
Temperature: 61°F , 16°C
Dew Point: 57°F , 14°C
Humidity: 88%
Barometer: 30.02 inHg , 1016.6 hPa
Summary: Mist
Clouds: Clear
Visibility: 5 miles , 8 km
2022/05/22 05:56 KGON 220556Z AUTO 16003KT 5SM BR CLR 16/14 A3002 RMK AO2 SLP164 T01560139 10189 20144 58008
KDXR - Danbury, Connecticut, USA
Distance from station: SW 47mi, 76km
Updated: Sun, 22-May-2022 1:53am EDT
Clear
Clear
 Wind from calm
Wind: Calm
Temperature: 68°F , 20°C
Dew Point: 64°F , 18°C
Humidity: 88%
Barometer: 30.03 inHg , 1016.9 hPa
Clouds: Clear
Visibility: 8 miles , 13 km
2022/05/22 05:53 KDXR 220553Z AUTO 00000KT 8SM CLR 20/18 A3003 RMK AO2 SLP164 T02000183 10289 20194 58002
 
KPSF - Pittsfield, Massachusetts, USA
Distance from station: NNW 54mi, 87km
Updated: Sun, 22-May-2022 1:54am EDT
Few Clouds
Few Clouds
 Wind from N
Wind: N 3 mph , 6 km/h
Temperature: 70°F , 21°C
Dew Point: 64°F , 18°C
Humidity: 83%
Barometer: 30.02 inHg , 1016.6 hPa
Clouds: Few Clouds
Visibility: 10 miles , 16 km
Cloud details: Few Clouds 8000 ft
2022/05/22 05:54 KPSF 220554Z AUTO 01003KT 10SM FEW080 21/18 A3002 RMK AO2 SLP134 T02060178 10283 20206 58001 TSNO
KWST - Westerly, Rhode Island, USA
Distance from station: ESE 56mi, 91km
Updated: Sun, 22-May-2022 1:53am EDT
Clear
Clear
 Wind from S
Wind: S 5 mph , 7 km/h
Temperature: 61°F , 16°C
Dew Point: 57°F , 14°C
Humidity: 88%
Barometer: 30.03 inHg , 1016.9 hPa
Clouds: Clear
Visibility: 7 miles , 11 km
2022/05/22 05:53 KWST 220553Z AUTO 17004KT 7SM CLR 16/14 A3003 RMK AO2 SLP168 T01560139 10200 20156 58005 $
 
KORH - Worcester, Massachusetts, USA
Distance from station: NE 57mi, 92km
Updated: Sun, 22-May-2022 1:54am EDT
Clear
Clear
 Wind from W
Wind: W 12 mph , 19 km/h
Temperature: 73°F , 23°C
Dew Point: 64°F , 18°C
Humidity: 74%
Barometer: 30.03 inHg , 1016.9 hPa
Clouds: Clear
Visibility: 10 miles , 16 km
2022/05/22 05:54 KORH 220554Z AUTO 26010KT 10SM CLR 23/18 A3003 RMK AO2 SLP162 T02280178 10278 20222 58006
KPOU - Poughkeepsie, New York, USA
Distance from station: W 60mi, 96km
Updated: Sun, 22-May-2022 1:53am EDT
Clear
Clear
 Wind from calm
Wind: Calm
Temperature: 68°F , 20°C
Dew Point: 64°F , 18°C
Humidity: 88%
Barometer: 29.98 inHg , 1015.2 hPa
Clouds: Clear
Visibility: 8 miles , 13 km
2022/05/22 05:53 KPOU 220553Z AUTO 00000KT 8SM CLR 20/18 A2998 RMK AO2 SLP148 T02000183 10306 20200 58002
 
KORE - Orange, Massachusetts, USA
Distance from station: NNE 60mi, 97km
Updated: Sun, 22-May-2022 1:52am EDT
Mist, Clear
Mist, Clear
 Wind from calm
Wind: Calm
Temperature: 66°F , 19°C
Dew Point: 64°F , 18°C
Humidity: 94%
Barometer: 30.02 inHg , 1016.6 hPa
Summary: Mist
Clouds: Clear
Visibility: 6 miles , 10 km
2022/05/22 05:52 KORE 220552Z AUTO 00000KT 6SM BR CLR 19/18 A3002 RMK AO2 SLP162 60000 T01890178 10267 20189 58002
KHTO - East Hampton, New York, USA
Distance from station: SSE 62mi, 99km
Updated: Sat, 21-May-2022 1:35pm EDT
NOT Current
Clear
Clear
 Wind from WNW
Wind: WNW 5 mph , 7 km/h
Temperature: 81°F , 27°C
Heat Index: 83°F , 28°C
Dew Point: 66°F , 19°C
Humidity: 62%
Barometer: 30.00 inHg , 1015.9 hPa
Clouds: Clear
Visibility: 10 miles , 16 km
2022/05/21 17:35 KHTO 211735Z AUTO 30004KT 10SM CLR 27/19 A3000 RMK AO2 T02670193
 
KFOK - Westhampton Beac, New York, USA
Distance from station: S 63mi, 102km
Updated: Sun, 22-May-2022 1:53am EDT
Clear
Clear
 Wind from SSW
Wind: SSW 5 mph , 7 km/h
Temperature: 63°F , 17°C
Dew Point: 61°F , 16°C
Humidity: 94%
Barometer: 30.05 inHg , 1017.6 hPa
Clouds: Clear
Visibility: 9 miles , 14 km
2022/05/22 05:53 KFOK 220553Z AUTO 20004KT 9SM CLR 17/16 A3005 RMK AO2 SLP174 T01670156 10194 20156 58007 $
KMTP - Montauk, New York, USA
Distance from station: SE 64mi, 104km
Updated: Sun, 22-May-2022 1:54am EDT

 Wind from varies
Wind: varies 5 mph , 7 km/h
Temperature: 63°F , 17°C
Dew Point: 59°F , 15°C
Humidity: 88%
Barometer: 30.04 inHg , 1017.3 hPa
2022/05/22 05:54 KMTP 220554Z AUTO VRB04KT 17/15 A3004 RMK AO1 SLP170 T01720150 10189 20156 58007